Terminal Aerodrome Forecast
Issued by NWS

Home | Current Version | Previous Version | Text Only | Print | Product List | Glossary On
Versions: 1 2 3 4 5 6 7 8 9 10 11 12 13 14 15 16 17
708
FTUS46 KMTR 212339
TAFSTS
TAF
KSTS 212339Z 2200/2224 32004KT P6SM SCT060
     FM220500 VRB03KT P6SM FEW030
     FM221800 32007KT P6SM SKC=

USA.gov is the U.S. government's official web portal to all federal, state and local government web resources and services.